createdAt,value
2023-03-16T02:58:58.645Z,99.90
2023-03-16T05:58:25.414Z,99.90
2023-03-16T06:03:27.648Z,99.90
2023-03-16T06:08:29.457Z,99.90
2023-03-16T06:13:31.288Z,99.90
2023-03-16T06:18:36.832Z,99.90
2023-03-16T06:23:38.606Z,99.90
2023-03-16T06:28:41.538Z,99.90
2023-03-16T06:33:43.348Z,99.90
2023-03-16T06:38:45.191Z,99.90
2023-03-16T06:43:48.034Z,99.90
2023-03-16T06:48:49.842Z,99.90
2023-03-16T06:53:51.941Z,99.90
2023-03-16T06:58:54.098Z,99.90
2023-03-16T07:03:55.977Z,99.90
2023-03-16T07:08:57.832Z,99.90
2023-03-16T07:14:00.070Z,99.90
2023-03-16T07:19:02.122Z,99.90
2023-03-16T07:24:04.036Z,99.90
2023-03-16T07:29:06.562Z,99.90
2023-03-16T07:34:14.661Z,99.90
2023-03-16T07:39:21.172Z,99.90
2023-03-16T07:44:23.200Z,99.90
2023-03-16T07:49:25.145Z,99.90
2023-03-16T07:54:27.006Z,99.90
2023-03-16T07:59:28.844Z,99.90
2023-03-16T08:04:31.334Z,99.90
2023-03-16T08:09:35.888Z,99.90
2023-03-16T08:14:37.751Z,99.90
2023-03-16T08:19:39.621Z,99.90
2023-03-16T08:24:42.603Z,99.90
2023-03-16T08:29:45.067Z,99.90
2023-03-16T08:34:47.792Z,99.90
2023-03-16T08:39:51.769Z,99.90
2023-03-16T08:44:55.210Z,99.90
2023-03-16T08:49:57.404Z,99.90
2023-03-16T08:55:03.431Z,99.90
2023-03-16T09:00:13.023Z,99.90
2023-03-16T09:05:15.917Z,99.90
2023-03-16T09:10:19.042Z,99.90
2023-03-16T09:15:21.437Z,99.90
2023-03-16T09:20:26.785Z,99.90
2023-03-16T09:25:32.479Z,99.90
2023-03-16T09:30:34.738Z,99.90
2023-03-16T09:35:38.385Z,99.90
2023-03-16T09:40:41.515Z,99.90
2023-03-16T09:45:59.783Z,99.90
2023-03-16T09:51:05.302Z,99.90
2023-03-16T09:56:11.044Z,99.90
2023-03-16T10:01:31.561Z,99.90
2023-03-16T10:06:33.914Z,99.90
2023-03-16T10:11:38.623Z,99.90
2023-03-16T10:16:48.072Z,99.90
2023-03-16T10:21:50.966Z,99.90
2023-03-16T10:27:00.462Z,99.90
2023-03-16T10:32:13.105Z,99.90
2023-03-16T10:37:15.061Z,99.90
2023-03-16T10:42:20.071Z,99.90
2023-03-16T10:47:30.325Z,99.90
2023-03-16T10:52:42.541Z,99.90
2023-03-16T10:57:50.606Z,99.90
2023-03-16T11:02:54.354Z,99.90
2023-03-16T11:08:12.122Z,99.70
2023-03-16T11:13:16.019Z,98.80
2023-03-16T11:18:39.187Z,97.60
2023-03-16T11:23:46.436Z,96.60
2023-03-16T11:28:54.991Z,93.40
2023-03-16T11:33:57.706Z,94.70
2023-03-16T11:39:28.161Z,93.80
2023-03-16T11:44:36.056Z,88.20
2023-03-16T11:49:44.558Z,91.50
2023-03-16T11:54:59.311Z,86.50
2023-03-16T12:00:25.687Z,85.90
2023-03-16T12:05:48.687Z,82.80
2023-03-16T12:11:13.370Z,81.20
2023-03-16T12:16:20.096Z,86.10
2023-03-16T12:21:39.237Z,91.10
2023-03-16T12:26:43.078Z,80.10
2023-03-16T12:31:58.165Z,69.30
2023-03-16T12:37:13.098Z,71.90
2023-03-16T12:42:36.308Z,70.00
2023-03-16T12:47:52.474Z,69.10
2023-03-16T12:52:54.455Z,59.30
2023-03-16T12:58:02.106Z,64.50
2023-03-16T13:03:05.776Z,59.10
2023-03-16T13:08:15.981Z,66.10
2023-03-16T13:13:18.459Z,58.20
2023-03-16T13:18:22.994Z,54.60
2023-03-16T13:23:49.687Z,54.40
2023-03-16T13:28:52.819Z,54.50
2023-03-16T13:33:56.954Z,49.70
2023-03-16T13:39:16.325Z,48.30
2023-03-16T13:44:18.805Z,51.80
2023-03-16T13:49:20.863Z,45.80
2023-03-16T13:54:28.048Z,52.60
2023-03-16T13:59:30.297Z,52.50
2023-03-16T14:04:33.956Z,46.50
2023-03-16T14:09:36.160Z,44.50
2023-03-16T14:14:39.525Z,45.80
2023-03-16T14:19:45.910Z,48.10
2023-03-16T14:24:54.056Z,47.00
2023-03-16T14:30:01.622Z,52.50
2023-03-16T14:35:13.772Z,45.10
2023-03-16T14:40:30.836Z,53.00
2023-03-16T14:45:34.928Z,47.60
2023-03-16T14:50:37.333Z,42.00
2023-03-16T14:55:39.582Z,41.50
2023-03-16T15:00:52.641Z,45.30
2023-03-16T15:05:55.956Z,49.40
2023-03-16T15:11:01.003Z,41.00
2023-03-16T15:16:04.576Z,42.90
2023-03-16T15:21:12.884Z,47.70
2023-03-16T15:26:25.087Z,43.50
2023-03-16T15:31:27.326Z,42.50
2023-03-16T15:36:29.179Z,43.00
2023-03-16T15:41:41.405Z,43.40
2023-03-16T15:46:48.966Z,50.90
2023-03-16T15:51:50.909Z,43.80
2023-03-16T15:56:54.792Z,45.40
2023-03-16T16:01:56.861Z,46.90
2023-03-16T16:07:00.158Z,46.50
2023-03-16T16:12:02.062Z,49.80
2023-03-16T16:17:05.744Z,47.80
2023-03-16T16:22:13.805Z,56.90
2023-03-16T16:27:15.808Z,51.20
2023-03-16T16:32:24.210Z,53.00
2023-03-16T16:37:26.097Z,52.10
2023-03-16T16:42:28.040Z,49.00
2023-03-16T16:47:30.156Z,53.20
2023-03-16T16:52:32.344Z,50.50
2023-03-16T16:57:34.229Z,50.90
2023-03-16T17:02:47.958Z,53.50
2023-03-16T17:07:50.220Z,52.30
2023-03-16T17:12:53.582Z,51.60
2023-03-16T17:18:05.070Z,51.60
2023-03-16T17:23:23.748Z,55.00
2023-03-16T17:28:26.938Z,52.20
2023-03-16T17:33:29.231Z,53.30
2023-03-16T17:38:32.733Z,51.60
2023-03-16T17:43:34.542Z,53.40
2023-03-16T17:48:36.487Z,53.90
2023-03-16T17:53:38.318Z,53.50
2023-03-16T17:58:40.472Z,53.40
2023-03-16T18:03:44.434Z,54.30
2023-03-16T18:08:48.556Z,55.40
2023-03-16T18:13:51.278Z,57.80
2023-03-16T18:18:57.720Z,57.10
2023-03-16T18:23:59.606Z,56.40
2023-03-16T18:29:03.588Z,57.00
2023-03-16T18:34:06.474Z,57.30
2023-03-16T18:39:26.432Z,57.00
